sensor_id;sensor_type;location;lat;lon;timestamp;P1;durP1;ratioP1;P2;durP2;ratioP2
4001;SDS011;2015;48.670;9.060;2022-08-01T00:00:41;8.90;;;8.00;;
4001;SDS011;2015;48.670;9.060;2022-08-01T00:03:13;5.40;;;4.90;;
4001;SDS011;2015;48.670;9.060;2022-08-01T00:05:44;3.70;;;3.50;;
4001;SDS011;2015;48.670;9.060;2022-08-01T00:08:17;8.60;;;5.37;;
4001;SDS011;2015;48.670;9.060;2022-08-01T00:10:49;4.23;;;3.53;;
4001;SDS011;2015;48.670;9.060;2022-08-01T00:13:21;4.70;;;4.40;;
4001;SDS011;2015;48.670;9.060;2022-08-01T00:15:53;4.17;;;3.97;;
4001;SDS011;2015;48.670;9.060;2022-08-01T00:18:25;3.63;;;3.33;;
4001;SDS011;2015;48.670;9.060;2022-08-01T00:20:56;4.43;;;3.97;;
4001;SDS011;2015;48.670;9.060;2022-08-01T00:23:28;4.30;;;4.00;;
4001;SDS011;2015;48.670;9.060;2022-08-01T00:26:00;3.45;;;3.25;;
4001;SDS011;2015;48.670;9.060;2022-08-01T00:28:32;4.30;;;4.10;;
4001;SDS011;2015;48.670;9.060;2022-08-01T00:31:04;4.20;;;3.90;;
4001;SDS011;2015;48.670;9.060;2022-08-01T00:33:36;4.73;;;4.30;;
4001;SDS011;2015;48.670;9.060;2022-08-01T00:36:10;4.53;;;4.23;;
4001;SDS011;2015;48.670;9.060;2022-08-01T00:38:42;5.17;;;4.67;;
4001;SDS011;2015;48.670;9.060;2022-08-01T00:41:13;3.83;;;3.63;;
4001;SDS011;2015;48.670;9.060;2022-08-01T00:43:45;4.57;;;4.23;;
4001;SDS011;2015;48.670;9.060;2022-08-01T00:46:17;4.30;;;4.10;;
4001;SDS011;2015;48.670;9.060;2022-08-01T00:48:49;4.57;;;4.17;;
4001;SDS011;2015;48.670;9.060;2022-08-01T00:51:22;4.70;;;4.30;;
4001;SDS011;2015;48.670;9.060;2022-08-01T00:53:54;5.00;;;4.50;;
4001;SDS011;2015;48.670;9.060;2022-08-01T00:56:28;4.87;;;4.43;;
4001;SDS011;2015;48.670;9.060;2022-08-01T00:59:01;4.20;;;3.87;;
4001;SDS011;2015;48.670;9.060;2022-08-01T01:01:34;4.93;;;4.63;;
4001;SDS011;2015;48.670;9.060;2022-08-01T01:04:10;4.37;;;4.10;;
4001;SDS011;2015;48.670;9.060;2022-08-01T01:09:33;4.97;;;4.63;;
4001;SDS011;2015;48.670;9.060;2022-08-01T01:17:58;9.53;;;4.70;;
4001;SDS011;2015;48.670;9.060;2022-08-01T01:27:18;4.53;;;4.23;;
4001;SDS011;2015;48.670;9.060;2022-08-01T01:29:55;3.85;;;3.63;;
4001;SDS011;2015;48.670;9.060;2022-08-01T01:32:35;4.97;;;4.67;;
4001;SDS011;2015;48.670;9.060;2022-08-01T01:35:13;4.13;;;3.83;;
4001;SDS011;2015;48.670;9.060;2022-08-01T01:37:55;4.63;;;4.20;;
4001;SDS011;2015;48.670;9.060;2022-08-01T01:40:31;5.80;;;5.30;;
4001;SDS011;2015;48.670;9.060;2022-08-01T01:43:04;4.70;;;4.30;;
4001;SDS011;2015;48.670;9.060;2022-08-01T01:45:41;4.63;;;4.37;;
4001;SDS011;2015;48.670;9.060;2022-08-01T01:48:17;6.77;;;4.37;;
4001;SDS011;2015;48.670;9.060;2022-08-01T01:50:51;5.03;;;4.73;;
4001;SDS011;2015;48.670;9.060;2022-08-01T01:53:23;5.37;;;5.07;;
4001;SDS011;2015;48.670;9.060;2022-08-01T01:55:57;5.20;;;4.90;;
4001;SDS011;2015;48.670;9.060;2022-08-01T01:58:32;5.10;;;4.70;;
4001;SDS011;2015;48.670;9.060;2022-08-01T02:01:05;4.90;;;4.60;;
4001;SDS011;2015;48.670;9.060;2022-08-01T02:03:45;5.17;;;4.80;;
4001;SDS011;2015;48.670;9.060;2022-08-01T02:06:19;6.30;;;5.53;;
4001;SDS011;2015;48.670;9.060;2022-08-01T02:08:53;5.87;;;5.40;;
4001;SDS011;2015;48.670;9.060;2022-08-01T02:11:25;4.40;;;4.13;;
4001;SDS011;2015;48.670;9.060;2022-08-01T02:13:58;5.20;;;4.80;;
4001;SDS011;2015;48.670;9.060;2022-08-01T02:16:34;5.07;;;4.77;;
4001;SDS011;2015;48.670;9.060;2022-08-01T02:19:08;5.00;;;4.70;;
4001;SDS011;2015;48.670;9.060;2022-08-01T02:21:47;5.33;;;4.93;;
4001;SDS011;2015;48.670;9.060;2022-08-01T02:27:09;4.97;;;4.57;;
4001;SDS011;2015;48.670;9.060;2022-08-01T02:30:00;7.57;;;4.80;;
4001;SDS011;2015;48.670;9.060;2022-08-01T02:32:39;5.60;;;5.20;;
4001;SDS011;2015;48.670;9.060;2022-08-01T02:35:25;8.73;;;8.00;;
4001;SDS011;2015;48.670;9.060;2022-08-01T02:37:59;14.37;;;13.50;;
4001;SDS011;2015;48.670;9.060;2022-08-01T02:40:34;11.60;;;10.90;;
4001;SDS011;2015;48.670;9.060;2022-08-01T02:43:11;12.77;;;11.97;;
4001;SDS011;2015;48.670;9.060;2022-08-01T02:45:45;6.90;;;6.40;;
4001;SDS011;2015;48.670;9.060;2022-08-01T02:48:21;7.93;;;7.40;;
4001;SDS011;2015;48.670;9.060;2022-08-01T02:50:55;10.10;;;9.50;;
4001;SDS011;2015;48.670;9.060;2022-08-01T02:53:31;9.27;;;8.67;;
4001;SDS011;2015;48.670;9.060;2022-08-01T02:56:15;11.07;;;10.40;;
4001;SDS011;2015;48.670;9.060;2022-08-01T02:58:48;8.67;;;8.17;;
4001;SDS011;2015;48.670;9.060;2022-08-01T03:01:23;5.00;;;4.70;;
4001;SDS011;2015;48.670;9.060;2022-08-01T03:03:59;5.80;;;5.47;;
4001;SDS011;2015;48.670;9.060;2022-08-01T03:06:32;7.27;;;6.77;;
4001;SDS011;2015;48.670;9.060;2022-08-01T03:09:04;9.37;;;8.57;;
4001;SDS011;2015;48.670;9.060;2022-08-01T03:11:38;5.27;;;4.97;;
4001;SDS011;2015;48.670;9.060;2022-08-01T03:14:12;5.37;;;4.90;;
4001;SDS011;2015;48.670;9.060;2022-08-01T03:16:45;7.50;;;6.60;;
4001;SDS011;2015;48.670;9.060;2022-08-01T03:19:18;6.30;;;5.70;;
4001;SDS011;2015;48.670;9.060;2022-08-01T03:21:54;5.50;;;5.10;;
4001;SDS011;2015;48.670;9.060;2022-08-01T03:24:29;5.60;;;5.13;;
4001;SDS011;2015;48.670;9.060;2022-08-01T03:27:02;10.20;;;6.10;;
4001;SDS011;2015;48.670;9.060;2022-08-01T03:29:35;5.23;;;4.87;;
4001;SDS011;2015;48.670;9.060;2022-08-01T03:32:11;5.60;;;5.20;;
4001;SDS011;2015;48.670;9.060;2022-08-01T03:34:44;5.70;;;5.30;;
4001;SDS011;2015;48.670;9.060;2022-08-01T03:37:26;5.60;;;5.10;;
4001;SDS011;2015;48.670;9.060;2022-08-01T03:40:02;6.63;;;6.13;;
4001;SDS011;2015;48.670;9.060;2022-08-01T03:42:43;4.85;;;4.55;;
4001;SDS011;2015;48.670;9.060;2022-08-01T03:45:25;4.90;;;4.60;;
4001;SDS011;2015;48.670;9.060;2022-08-01T03:48:03;6.20;;;5.80;;
4001;SDS011;2015;48.670;9.060;2022-08-01T03:50:41;5.27;;;4.97;;
4001;SDS011;2015;48.670;9.060;2022-08-01T03:53:19;5.77;;;5.33;;
4001;SDS011;2015;48.670;9.060;2022-08-01T03:55:55;6.07;;;5.67;;
4001;SDS011;2015;48.670;9.060;2022-08-01T03:58:29;5.30;;;4.83;;
4001;SDS011;2015;48.670;9.060;2022-08-01T04:01:02;5.50;;;5.20;;
4001;SDS011;2015;48.670;9.060;2022-08-01T04:03:37;5.47;;;4.97;;
4001;SDS011;2015;48.670;9.060;2022-08-01T04:06:12;5.90;;;5.50;;
4001;SDS011;2015;48.670;9.060;2022-08-01T04:08:45;4.50;;;4.20;;
4001;SDS011;2015;48.670;9.060;2022-08-01T04:11:27;10.70;;;6.33;;
4001;SDS011;2015;48.670;9.060;2022-08-01T04:13:59;5.30;;;4.80;;
4001;SDS011;2015;48.670;9.060;2022-08-01T04:16:31;5.27;;;4.87;;
4001;SDS011;2015;48.670;9.060;2022-08-01T04:19:03;5.17;;;4.87;;
4001;SDS011;2015;48.670;9.060;2022-08-01T04:21:34;4.47;;;4.20;;
4001;SDS011;2015;48.670;9.060;2022-08-01T04:24:12;4.77;;;4.37;;
4001;SDS011;2015;48.670;9.060;2022-08-01T04:26:49;4.73;;;4.43;;
4001;SDS011;2015;48.670;9.060;2022-08-01T04:29:23;4.13;;;3.93;;
4001;SDS011;2015;48.670;9.060;2022-08-01T04:31:56;7.17;;;4.73;;
4001;SDS011;2015;48.670;9.060;2022-08-01T04:34:30;5.47;;;5.00;;
4001;SDS011;2015;48.670;9.060;2022-08-01T04:37:04;5.13;;;4.23;;
4001;SDS011;2015;48.670;9.060;2022-08-01T04:39:38;4.27;;;3.97;;
4001;SDS011;2015;48.670;9.060;2022-08-01T04:42:21;4.50;;;4.20;;
4001;SDS011;2015;48.670;9.060;2022-08-01T04:45:00;5.30;;;4.90;;
4001;SDS011;2015;48.670;9.060;2022-08-01T04:47:33;4.53;;;4.23;;
4001;SDS011;2015;48.670;9.060;2022-08-01T04:50:07;4.60;;;4.30;;
4001;SDS011;2015;48.670;9.060;2022-08-01T04:52:40;4.37;;;4.10;;
4001;SDS011;2015;48.670;9.060;2022-08-01T04:55:13;5.23;;;4.53;;
4001;SDS011;2015;48.670;9.060;2022-08-01T04:57:45;4.83;;;4.53;;
4001;SDS011;2015;48.670;9.060;2022-08-01T05:00:18;4.87;;;4.47;;
4001;SDS011;2015;48.670;9.060;2022-08-01T05:02:50;5.20;;;4.77;;
4001;SDS011;2015;48.670;9.060;2022-08-01T05:05:22;4.87;;;4.57;;
4001;SDS011;2015;48.670;9.060;2022-08-01T05:07:53;4.93;;;4.63;;
4001;SDS011;2015;48.670;9.060;2022-08-01T05:10:27;5.77;;;5.37;;
4001;SDS011;2015;48.670;9.060;2022-08-01T05:12:58;5.60;;;5.27;;
4001;SDS011;2015;48.670;9.060;2022-08-01T05:15:30;4.80;;;4.50;;
4001;SDS011;2015;48.670;9.060;2022-08-01T05:18:02;4.53;;;4.33;;
4001;SDS011;2015;48.670;9.060;2022-08-01T05:20:35;6.77;;;4.20;;
4001;SDS011;2015;48.670;9.060;2022-08-01T05:23:08;4.90;;;4.50;;
4001;SDS011;2015;48.670;9.060;2022-08-01T05:25:52;5.40;;;5.00;;
4001;SDS011;2015;48.670;9.060;2022-08-01T05:28:28;4.90;;;4.70;;
4001;SDS011;2015;48.670;9.060;2022-08-01T05:31:00;5.50;;;4.33;;
4001;SDS011;2015;48.670;9.060;2022-08-01T05:33:31;4.70;;;4.40;;
4001;SDS011;2015;48.670;9.060;2022-08-01T05:36:03;4.53;;;4.20;;
4001;SDS011;2015;48.670;9.060;2022-08-01T05:38:35;4.43;;;4.03;;
4001;SDS011;2015;48.670;9.060;2022-08-01T05:41:07;4.70;;;4.30;;
4001;SDS011;2015;48.670;9.060;2022-08-01T05:43:39;4.27;;;4.07;;
4001;SDS011;2015;48.670;9.060;2022-08-01T05:46:11;4.40;;;4.20;;
4001;SDS011;2015;48.670;9.060;2022-08-01T05:48:43;4.50;;;4.20;;
4001;SDS011;2015;48.670;9.060;2022-08-01T05:51:15;3.73;;;3.43;;
4001;SDS011;2015;48.670;9.060;2022-08-01T05:53:47;4.00;;;3.80;;
4001;SDS011;2015;48.670;9.060;2022-08-01T05:56:19;3.40;;;3.20;;
4001;SDS011;2015;48.670;9.060;2022-08-01T05:58:51;4.07;;;3.67;;
4001;SDS011;2015;48.670;9.060;2022-08-01T06:01:23;3.77;;;3.50;;
4001;SDS011;2015;48.670;9.060;2022-08-01T06:03:56;3.67;;;3.47;;
4001;SDS011;2015;48.670;9.060;2022-08-01T06:06:28;3.20;;;3.00;;
4001;SDS011;2015;48.670;9.060;2022-08-01T06:08:59;3.30;;;3.10;;
4001;SDS011;2015;48.670;9.060;2022-08-01T06:11:31;4.13;;;3.70;;
4001;SDS011;2015;48.670;9.060;2022-08-01T06:14:03;2.73;;;2.60;;
4001;SDS011;2015;48.670;9.060;2022-08-01T06:16:35;3.03;;;2.93;;
4001;SDS011;2015;48.670;9.060;2022-08-01T06:19:07;3.27;;;2.90;;
4001;SDS011;2015;48.670;9.060;2022-08-01T06:21:38;2.97;;;2.77;;
4001;SDS011;2015;48.670;9.060;2022-08-01T06:24:10;3.30;;;3.10;;
4001;SDS011;2015;48.670;9.060;2022-08-01T06:26:42;3.63;;;3.40;;
4001;SDS011;2015;48.670;9.060;2022-08-01T06:29:14;3.80;;;3.50;;
4001;SDS011;2015;48.670;9.060;2022-08-01T06:31:46;4.33;;;4.03;;
4001;SDS011;2015;48.670;9.060;2022-08-01T06:34:17;3.97;;;3.47;;
4001;SDS011;2015;48.670;9.060;2022-08-01T06:36:49;4.47;;;3.93;;
4001;SDS011;2015;48.670;9.060;2022-08-01T06:39:21;5.50;;;4.37;;
4001;SDS011;2015;48.670;9.060;2022-08-01T06:41:53;3.90;;;3.60;;
4001;SDS011;2015;48.670;9.060;2022-08-01T06:44:25;3.40;;;3.20;;
4001;SDS011;2015;48.670;9.060;2022-08-01T06:46:57;4.23;;;4.03;;
4001;SDS011;2015;48.670;9.060;2022-08-01T06:49:31;3.70;;;3.43;;
4001;SDS011;2015;48.670;9.060;2022-08-01T06:52:03;4.63;;;3.90;;
4001;SDS011;2015;48.670;9.060;2022-08-01T06:54:36;4.50;;;4.20;;
4001;SDS011;2015;48.670;9.060;2022-08-01T06:57:07;4.13;;;3.93;;
4001;SDS011;2015;48.670;9.060;2022-08-01T06:59:39;4.20;;;3.90;;
4001;SDS011;2015;48.670;9.060;2022-08-01T07:02:24;4.40;;;4.00;;
4001;SDS011;2015;48.670;9.060;2022-08-01T07:04:56;4.07;;;3.87;;
4001;SDS011;2015;48.670;9.060;2022-08-01T07:07:31;3.67;;;3.43;;
4001;SDS011;2015;48.670;9.060;2022-08-01T07:10:03;4.43;;;4.13;;
4001;SDS011;2015;48.670;9.060;2022-08-01T07:12:35;4.70;;;4.23;;
4001;SDS011;2015;48.670;9.060;2022-08-01T07:15:09;3.67;;;3.47;;
4001;SDS011;2015;48.670;9.060;2022-08-01T07:17:42;4.00;;;3.70;;
4001;SDS011;2015;48.670;9.060;2022-08-01T07:20:14;4.03;;;3.73;;
4001;SDS011;2015;48.670;9.060;2022-08-01T07:22:46;3.40;;;3.20;;
4001;SDS011;2015;48.670;9.060;2022-08-01T07:25:21;2.90;;;2.77;;
4001;SDS011;2015;48.670;9.060;2022-08-01T07:27:52;3.63;;;2.53;;
4001;SDS011;2015;48.670;9.060;2022-08-01T07:30:24;5.83;;;3.73;;
4001;SDS011;2015;48.670;9.060;2022-08-01T07:32:56;3.40;;;3.20;;
4001;SDS011;2015;48.670;9.060;2022-08-01T07:35:29;3.73;;;3.43;;
4001;SDS011;2015;48.670;9.060;2022-08-01T07:38:00;3.10;;;2.90;;
4001;SDS011;2015;48.670;9.060;2022-08-01T07:40:33;2.70;;;2.50;;
4001;SDS011;2015;48.670;9.060;2022-08-01T07:43:04;2.57;;;2.47;;
4001;SDS011;2015;48.670;9.060;2022-08-01T07:45:36;3.13;;;2.93;;
4001;SDS011;2015;48.670;9.060;2022-08-01T07:48:13;2.50;;;2.40;;
4001;SDS011;2015;48.670;9.060;2022-08-01T07:50:45;2.73;;;2.50;;
4001;SDS011;2015;48.670;9.060;2022-08-01T07:53:17;3.27;;;2.80;;
4001;SDS011;2015;48.670;9.060;2022-08-01T07:55:48;3.90;;;3.60;;
4001;SDS011;2015;48.670;9.060;2022-08-01T07:58:20;3.30;;;3.10;;
4001;SDS011;2015;48.670;9.060;2022-08-01T08:00:52;3.33;;;3.13;;
4001;SDS011;2015;48.670;9.060;2022-08-01T08:03:24;3.73;;;3.53;;
4001;SDS011;2015;48.670;9.060;2022-08-01T08:05:56;4.07;;;3.60;;
4001;SDS011;2015;48.670;9.060;2022-08-01T08:08:30;4.40;;;4.10;;
4001;SDS011;2015;48.670;9.060;2022-08-01T08:11:02;8.73;;;4.73;;
4001;SDS011;2015;48.670;9.060;2022-08-01T08:13:34;3.63;;;3.33;;
4001;SDS011;2015;48.670;9.060;2022-08-01T08:16:06;3.57;;;3.37;;
4001;SDS011;2015;48.670;9.060;2022-08-01T08:18:37;3.87;;;3.67;;
4001;SDS011;2015;48.670;9.060;2022-08-01T08:21:09;4.10;;;3.80;;
4001;SDS011;2015;48.670;9.060;2022-08-01T08:23:41;3.63;;;3.43;;
4001;SDS011;2015;48.670;9.060;2022-08-01T08:26:32;4.30;;;4.07;;
4001;SDS011;2015;48.670;9.060;2022-08-01T08:29:03;6.57;;;4.07;;
4001;SDS011;2015;48.670;9.060;2022-08-01T08:31:35;3.53;;;3.33;;
4001;SDS011;2015;48.670;9.060;2022-08-01T08:34:23;4.00;;;3.70;;
4001;SDS011;2015;48.670;9.060;2022-08-01T08:36:56;7.40;;;6.90;;
4001;SDS011;2015;48.670;9.060;2022-08-01T08:39:29;4.00;;;3.80;;
4001;SDS011;2015;48.670;9.060;2022-08-01T08:42:12;4.20;;;4.00;;
4001;SDS011;2015;48.670;9.060;2022-08-01T08:44:44;5.30;;;4.20;;
4001;SDS011;2015;48.670;9.060;2022-08-01T08:47:16;4.73;;;4.43;;
4001;SDS011;2015;48.670;9.060;2022-08-01T08:49:52;4.27;;;4.03;;
4001;SDS011;2015;48.670;9.060;2022-08-01T08:52:25;3.93;;;3.63;;
4001;SDS011;2015;48.670;9.060;2022-08-01T08:54:57;5.60;;;3.60;;
4001;SDS011;2015;48.670;9.060;2022-08-01T08:57:29;4.03;;;3.72;;
4001;SDS011;2015;48.670;9.060;2022-08-01T09:00:02;4.20;;;4.00;;
4001;SDS011;2015;48.670;9.060;2022-08-01T09:02:34;4.45;;;4.15;;
4001;SDS011;2015;48.670;9.060;2022-08-01T09:05:06;3.45;;;3.25;;
4001;SDS011;2015;48.670;9.060;2022-08-01T09:07:38;4.22;;;3.92;;
4001;SDS011;2015;48.670;9.060;2022-08-01T09:10:10;4.60;;;4.20;;
4001;SDS011;2015;48.670;9.060;2022-08-01T09:13:01;4.53;;;4.20;;
4001;SDS011;2015;48.670;9.060;2022-08-01T09:18:34;3.80;;;3.58;;
4001;SDS011;2015;48.670;9.060;2022-08-01T09:21:13;4.00;;;3.80;;
4001;SDS011;2015;48.670;9.060;2022-08-01T09:23:52;3.88;;;3.58;;
4001;SDS011;2015;48.670;9.060;2022-08-01T09:29:05;4.03;;;3.78;;
4001;SDS011;2015;48.670;9.060;2022-08-01T09:31:41;6.45;;;3.28;;
4001;SDS011;2015;48.670;9.060;2022-08-01T09:34:30;4.50;;;4.18;;
4001;SDS011;2015;48.670;9.060;2022-08-01T09:37:04;4.18;;;3.83;;
4001;SDS011;2015;48.670;9.060;2022-08-01T09:39:38;5.22;;;4.93;;
4001;SDS011;2015;48.670;9.060;2022-08-01T09:44:59;4.20;;;3.90;;
4001;SDS011;2015;48.670;9.060;2022-08-01T09:47:39;4.68;;;4.38;;
4001;SDS011;2015;48.670;9.060;2022-08-01T09:50:11;4.30;;;4.05;;
4001;SDS011;2015;48.670;9.060;2022-08-01T09:52:48;4.25;;;4.05;;
4001;SDS011;2015;48.670;9.060;2022-08-01T09:55:25;3.65;;;3.45;;
4001;SDS011;2015;48.670;9.060;2022-08-01T09:57:56;4.60;;;4.30;;
4001;SDS011;2015;48.670;9.060;2022-08-01T10:00:32;4.90;;;4.60;;
4001;SDS011;2015;48.670;9.060;2022-08-01T10:03:25;4.22;;;4.03;;
4001;SDS011;2015;48.670;9.060;2022-08-01T10:05:58;5.55;;;5.05;;
4001;SDS011;2015;48.670;9.060;2022-08-01T10:08:34;5.97;;;5.53;;
4001;SDS011;2015;48.670;9.060;2022-08-01T10:11:17;6.45;;;5.85;;
4001;SDS011;2015;48.670;9.060;2022-08-01T10:14:06;7.87;;;7.30;;
4001;SDS011;2015;48.670;9.060;2022-08-01T10:16:38;7.20;;;6.80;;
4001;SDS011;2015;48.670;9.060;2022-08-01T10:19:12;7.10;;;6.60;;
4001;SDS011;2015;48.670;9.060;2022-08-01T10:21:45;8.05;;;7.47;;
4001;SDS011;2015;48.670;9.060;2022-08-01T10:24:29;7.40;;;6.95;;
4001;SDS011;2015;48.670;9.060;2022-08-01T10:27:05;5.43;;;5.13;;
4001;SDS011;2015;48.670;9.060;2022-08-01T10:29:46;6.10;;;5.70;;
4001;SDS011;2015;48.670;9.060;2022-08-01T10:32:38;5.57;;;5.28;;
4001;SDS011;2015;48.670;9.060;2022-08-01T10:35:21;4.53;;;4.32;;
4001;SDS011;2015;48.670;9.060;2022-08-01T10:38:13;4.10;;;3.85;;
4001;SDS011;2015;48.670;9.060;2022-08-01T10:40:45;5.90;;;5.60;;
4001;SDS011;2015;48.670;9.060;2022-08-01T10:43:18;4.70;;;4.40;;
4001;SDS011;2015;48.670;9.060;2022-08-01T10:45:52;4.88;;;4.57;;
4001;SDS011;2015;48.670;9.060;2022-08-01T10:51:22;4.53;;;4.28;;
4001;SDS011;2015;48.670;9.060;2022-08-01T10:54:15;4.68;;;4.38;;
4001;SDS011;2015;48.670;9.060;2022-08-01T10:56:48;5.03;;;4.60;;
4001;SDS011;2015;48.670;9.060;2022-08-01T10:59:25;5.47;;;5.07;;
4001;SDS011;2015;48.670;9.060;2022-08-01T11:02:31;4.28;;;4.07;;
4001;SDS011;2015;48.670;9.060;2022-08-01T11:05:09;4.65;;;4.35;;
4001;SDS011;2015;48.670;9.060;2022-08-01T11:07:53;4.40;;;4.10;;
4001;SDS011;2015;48.670;9.060;2022-08-01T11:13:16;4.10;;;3.80;;
4001;SDS011;2015;48.670;9.060;2022-08-01T11:18:59;4.37;;;4.17;;
4001;SDS011;2015;48.670;9.060;2022-08-01T11:21:57;4.37;;;4.07;;
4001;SDS011;2015;48.670;9.060;2022-08-01T11:27:22;4.47;;;4.17;;
4001;SDS011;2015;48.670;9.060;2022-08-01T11:32:47;5.78;;;3.70;;
4001;SDS011;2015;48.670;9.060;2022-08-01T11:38:46;4.60;;;4.30;;
4001;SDS011;2015;48.670;9.060;2022-08-01T11:44:10;3.72;;;3.53;;
4001;SDS011;2015;48.670;9.060;2022-08-01T11:49:44;3.80;;;3.60;;
4001;SDS011;2015;48.670;9.060;2022-08-01T11:52:29;4.90;;;3.80;;
4001;SDS011;2015;48.670;9.060;2022-08-01T11:55:08;5.00;;;3.77;;
4001;SDS011;2015;48.670;9.060;2022-08-01T11:57:41;4.50;;;4.27;;
4001;SDS011;2015;48.670;9.060;2022-08-01T12:00:14;4.70;;;4.40;;
4001;SDS011;2015;48.670;9.060;2022-08-01T12:02:56;3.53;;;3.33;;
4001;SDS011;2015;48.670;9.060;2022-08-01T12:05:31;4.10;;;3.53;;
4001;SDS011;2015;48.670;9.060;2022-08-01T12:08:04;3.80;;;3.50;;
4001;SDS011;2015;48.670;9.060;2022-08-01T12:10:37;5.10;;;3.90;;
4001;SDS011;2015;48.670;9.060;2022-08-01T12:13:20;4.43;;;3.23;;
4001;SDS011;2015;48.670;9.060;2022-08-01T12:15:52;4.13;;;3.83;;
4001;SDS011;2015;48.670;9.060;2022-08-01T12:18:27;3.27;;;3.07;;
4001;SDS011;2015;48.670;9.060;2022-08-01T12:21:02;4.07;;;3.77;;
4001;SDS011;2015;48.670;9.060;2022-08-01T12:23:37;4.10;;;3.87;;
4001;SDS011;2015;48.670;9.060;2022-08-01T12:26:09;4.03;;;3.83;;
4001;SDS011;2015;48.670;9.060;2022-08-01T12:29:01;3.83;;;3.63;;
4001;SDS011;2015;48.670;9.060;2022-08-01T12:31:33;4.97;;;4.67;;
4001;SDS011;2015;48.670;9.060;2022-08-01T12:34:26;5.00;;;4.30;;
4001;SDS011;2015;48.670;9.060;2022-08-01T12:37:01;4.47;;;4.18;;
4001;SDS011;2015;48.670;9.060;2022-08-01T12:39:34;4.40;;;4.10;;
4001;SDS011;2015;48.670;9.060;2022-08-01T12:42:10;3.57;;;3.37;;
4001;SDS011;2015;48.670;9.060;2022-08-01T12:44:44;4.37;;;4.07;;
4001;SDS011;2015;48.670;9.060;2022-08-01T12:47:18;4.00;;;3.80;;
4001;SDS011;2015;48.670;9.060;2022-08-01T12:49:51;3.63;;;3.23;;
4001;SDS011;2015;48.670;9.060;2022-08-01T12:52:24;4.23;;;3.93;;
4001;SDS011;2015;48.670;9.060;2022-08-01T12:55:03;3.53;;;3.33;;
4001;SDS011;2015;48.670;9.060;2022-08-01T12:57:41;3.97;;;3.77;;
4001;SDS011;2015;48.670;9.060;2022-08-01T13:00:19;3.70;;;3.50;;
4001;SDS011;2015;48.670;9.060;2022-08-01T13:03:03;3.90;;;3.60;;
4001;SDS011;2015;48.670;9.060;2022-08-01T13:05:41;4.07;;;3.77;;
4001;SDS011;2015;48.670;9.060;2022-08-01T13:08:17;3.50;;;3.30;;
4001;SDS011;2015;48.670;9.060;2022-08-01T13:11:00;3.40;;;3.20;;
4001;SDS011;2015;48.670;9.060;2022-08-01T13:13:40;3.20;;;3.00;;
4001;SDS011;2015;48.670;9.060;2022-08-01T13:16:22;3.67;;;3.40;;
4001;SDS011;2015;48.670;9.060;2022-08-01T13:19:08;3.20;;;3.00;;
4001;SDS011;2015;48.670;9.060;2022-08-01T13:21:52;6.90;;;3.20;;
4001;SDS011;2015;48.670;9.060;2022-08-01T13:24:26;3.40;;;3.20;;
4001;SDS011;2015;48.670;9.060;2022-08-01T13:27:00;3.83;;;3.53;;
4001;SDS011;2015;48.670;9.060;2022-08-01T13:32:21;3.40;;;3.20;;
4001;SDS011;2015;48.670;9.060;2022-08-01T13:35:02;6.40;;;3.70;;
4001;SDS011;2015;48.670;9.060;2022-08-01T13:37:36;3.50;;;3.30;;
4001;SDS011;2015;48.670;9.060;2022-08-01T13:40:09;3.43;;;3.13;;
4001;SDS011;2015;48.670;9.060;2022-08-01T13:42:42;3.87;;;3.17;;
4001;SDS011;2015;48.670;9.060;2022-08-01T13:45:14;3.30;;;3.10;;
4001;SDS011;2015;48.670;9.060;2022-08-01T13:47:46;3.57;;;3.37;;
4001;SDS011;2015;48.670;9.060;2022-08-01T13:50:37;3.33;;;3.13;;
4001;SDS011;2015;48.670;9.060;2022-08-01T13:53:09;3.67;;;3.47;;
4001;SDS011;2015;48.670;9.060;2022-08-01T13:55:41;3.80;;;3.60;;
4001;SDS011;2015;48.670;9.060;2022-08-01T13:58:13;3.80;;;3.60;;
4001;SDS011;2015;48.670;9.060;2022-08-01T14:00:44;4.07;;;3.77;;
4001;SDS011;2015;48.670;9.060;2022-08-01T14:03:17;3.73;;;3.23;;
4001;SDS011;2015;48.670;9.060;2022-08-01T14:05:49;3.93;;;3.23;;
4001;SDS011;2015;48.670;9.060;2022-08-01T14:08:29;4.53;;;4.23;;
4001;SDS011;2015;48.670;9.060;2022-08-01T14:11:01;3.77;;;3.50;;
4001;SDS011;2015;48.670;9.060;2022-08-01T14:13:37;4.20;;;3.90;;
4001;SDS011;2015;48.670;9.060;2022-08-01T14:16:17;3.47;;;3.27;;
4001;SDS011;2015;48.670;9.060;2022-08-01T14:18:49;3.90;;;3.37;;
4001;SDS011;2015;48.670;9.060;2022-08-01T14:21:21;4.03;;;3.83;;
4001;SDS011;2015;48.670;9.060;2022-08-01T14:23:53;3.73;;;3.43;;
4001;SDS011;2015;48.670;9.060;2022-08-01T14:26:25;3.90;;;3.70;;
4001;SDS011;2015;48.670;9.060;2022-08-01T14:28:56;3.00;;;2.80;;
4001;SDS011;2015;48.670;9.060;2022-08-01T14:31:28;3.70;;;3.40;;
4001;SDS011;2015;48.670;9.060;2022-08-01T14:34:04;3.47;;;3.10;;
4001;SDS011;2015;48.670;9.060;2022-08-01T14:36:36;5.73;;;3.40;;
4001;SDS011;2015;48.670;9.060;2022-08-01T14:39:09;3.90;;;3.60;;
4001;SDS011;2015;48.670;9.060;2022-08-01T14:41:45;3.73;;;3.53;;
4001;SDS011;2015;48.670;9.060;2022-08-01T14:44:18;3.87;;;3.57;;
4001;SDS011;2015;48.670;9.060;2022-08-01T14:46:50;7.60;;;3.80;;
4001;SDS011;2015;48.670;9.060;2022-08-01T14:49:28;8.37;;;3.37;;
4001;SDS011;2015;48.670;9.060;2022-08-01T14:52:00;3.80;;;3.50;;
4001;SDS011;2015;48.670;9.060;2022-08-01T14:54:32;5.03;;;3.90;;
4001;SDS011;2015;48.670;9.060;2022-08-01T14:57:04;4.73;;;3.80;;
4001;SDS011;2015;48.670;9.060;2022-08-01T14:59:36;3.60;;;3.40;;
4001;SDS011;2015;48.670;9.060;2022-08-01T15:02:07;3.47;;;3.27;;
4001;SDS011;2015;48.670;9.060;2022-08-01T15:04:41;3.90;;;3.60;;
4001;SDS011;2015;48.670;9.060;2022-08-01T15:07:13;3.33;;;3.13;;
4001;SDS011;2015;48.670;9.060;2022-08-01T15:09:46;3.53;;;3.33;;
4001;SDS011;2015;48.670;9.060;2022-08-01T15:12:18;4.43;;;4.00;;
4001;SDS011;2015;48.670;9.060;2022-08-01T15:14:50;3.20;;;3.00;;
4001;SDS011;2015;48.670;9.060;2022-08-01T15:17:23;4.10;;;3.80;;
4001;SDS011;2015;48.670;9.060;2022-08-01T15:19:56;3.33;;;3.13;;
4001;SDS011;2015;48.670;9.060;2022-08-01T15:22:33;4.17;;;3.77;;
4001;SDS011;2015;48.670;9.060;2022-08-01T15:25:05;3.37;;;3.17;;
4001;SDS011;2015;48.670;9.060;2022-08-01T15:27:37;3.60;;;3.27;;
4001;SDS011;2015;48.670;9.060;2022-08-01T15:30:09;4.47;;;3.50;;
4001;SDS011;2015;48.670;9.060;2022-08-01T15:32:41;3.67;;;3.33;;
4001;SDS011;2015;48.670;9.060;2022-08-01T15:35:13;3.50;;;3.30;;
4001;SDS011;2015;48.670;9.060;2022-08-01T15:37:45;3.87;;;3.50;;
4001;SDS011;2015;48.670;9.060;2022-08-01T15:40:16;3.80;;;3.60;;
4001;SDS011;2015;48.670;9.060;2022-08-01T15:42:48;3.20;;;3.00;;
4001;SDS011;2015;48.670;9.060;2022-08-01T15:45:20;3.57;;;3.27;;
4001;SDS011;2015;48.670;9.060;2022-08-01T15:48:12;4.33;;;3.70;;
4001;SDS011;2015;48.670;9.060;2022-08-01T15:50:44;3.73;;;3.53;;
4001;SDS011;2015;48.670;9.060;2022-08-01T15:53:16;4.00;;;3.70;;
4001;SDS011;2015;48.670;9.060;2022-08-01T15:55:48;3.87;;;3.67;;
4001;SDS011;2015;48.670;9.060;2022-08-01T15:58:23;3.77;;;3.27;;
4001;SDS011;2015;48.670;9.060;2022-08-01T16:00:54;2.90;;;2.70;;
4001;SDS011;2015;48.670;9.060;2022-08-01T16:03:26;3.60;;;3.30;;
4001;SDS011;2015;48.670;9.060;2022-08-01T16:05:58;3.53;;;3.23;;
4001;SDS011;2015;48.670;9.060;2022-08-01T16:08:30;3.70;;;3.50;;
4001;SDS011;2015;48.670;9.060;2022-08-01T16:11:02;3.70;;;3.50;;
4001;SDS011;2015;48.670;9.060;2022-08-01T16:13:34;4.27;;;3.50;;
4001;SDS011;2015;48.670;9.060;2022-08-01T16:16:09;4.20;;;3.20;;
4001;SDS011;2015;48.670;9.060;2022-08-01T16:18:42;2.80;;;2.70;;
4001;SDS011;2015;48.670;9.060;2022-08-01T16:21:14;3.57;;;3.30;;
4001;SDS011;2015;48.670;9.060;2022-08-01T16:23:46;3.30;;;3.10;;
4001;SDS011;2015;48.670;9.060;2022-08-01T16:26:18;3.43;;;3.13;;
4001;SDS011;2015;48.670;9.060;2022-08-01T16:28:58;3.30;;;3.10;;
4001;SDS011;2015;48.670;9.060;2022-08-01T16:31:30;2.93;;;2.73;;
4001;SDS011;2015;48.670;9.060;2022-08-01T16:34:22;7.83;;;3.63;;
4001;SDS011;2015;48.670;9.060;2022-08-01T16:36:54;2.70;;;2.50;;
4001;SDS011;2015;48.670;9.060;2022-08-01T16:39:25;3.27;;;3.07;;
4001;SDS011;2015;48.670;9.060;2022-08-01T16:41:57;3.87;;;3.57;;
4001;SDS011;2015;48.670;9.060;2022-08-01T16:44:31;2.67;;;2.47;;
4001;SDS011;2015;48.670;9.060;2022-08-01T16:47:04;3.50;;;3.30;;
4001;SDS011;2015;48.670;9.060;2022-08-01T16:49:39;3.07;;;2.87;;
4001;SDS011;2015;48.670;9.060;2022-08-01T16:52:11;2.50;;;2.37;;
4001;SDS011;2015;48.670;9.060;2022-08-01T16:54:43;3.73;;;2.77;;